sensor_id;sensor_type;location;lat;lon;timestamp;P1;durP1;ratioP1;P2;durP2;ratioP2
31043;SDS011;17710;52.520;13.352;2022-09-27T00:01:43;2.63;;;1.17;;
31043;SDS011;17710;52.520;13.352;2022-09-27T00:04:10;2.47;;;1.00;;
31043;SDS011;17710;52.520;13.352;2022-09-27T00:06:37;3.00;;;1.27;;
31043;SDS011;17710;52.520;13.352;2022-09-27T00:09:03;3.67;;;1.30;;
31043;SDS011;17710;52.520;13.352;2022-09-27T00:11:32;3.10;;;1.40;;
31043;SDS011;17710;52.520;13.352;2022-09-27T00:14:02;2.22;;;1.30;;
31043;SDS011;17710;52.520;13.352;2022-09-27T00:16:33;6.35;;;1.77;;
31043;SDS011;17710;52.520;13.352;2022-09-27T00:19:02;5.35;;;1.30;;
31043;SDS011;17710;52.520;13.352;2022-09-27T00:21:33;5.38;;;1.17;;
31043;SDS011;17710;52.520;13.352;2022-09-27T00:24:00;3.90;;;1.35;;
31043;SDS011;17710;52.520;13.352;2022-09-27T00:26:27;2.15;;;1.35;;
31043;SDS011;17710;52.520;13.352;2022-09-27T00:28:54;2.03;;;1.23;;
31043;SDS011;17710;52.520;13.352;2022-09-27T00:31:21;4.18;;;1.27;;
31043;SDS011;17710;52.520;13.352;2022-09-27T00:33:52;3.15;;;1.20;;
31043;SDS011;17710;52.520;13.352;2022-09-27T00:36:19;4.80;;;1.50;;
31043;SDS011;17710;52.520;13.352;2022-09-27T00:38:47;1.50;;;1.10;;
31043;SDS011;17710;52.520;13.352;2022-09-27T00:41:15;4.95;;;1.40;;
31043;SDS011;17710;52.520;13.352;2022-09-27T00:43:44;3.30;;;1.20;;
31043;SDS011;17710;52.520;13.352;2022-09-27T00:46:14;2.75;;;1.20;;
31043;SDS011;17710;52.520;13.352;2022-09-27T00:48:48;3.45;;;1.30;;
31043;SDS011;17710;52.520;13.352;2022-09-27T00:51:24;2.72;;;1.05;;
31043;SDS011;17710;52.520;13.352;2022-09-27T00:53:51;2.75;;;1.42;;
31043;SDS011;17710;52.520;13.352;2022-09-27T00:56:22;2.30;;;1.30;;
31043;SDS011;17710;52.520;13.352;2022-09-27T00:58:55;2.78;;;1.13;;
31043;SDS011;17710;52.520;13.352;2022-09-27T01:01:24;2.92;;;1.45;;
31043;SDS011;17710;52.520;13.352;2022-09-27T01:03:51;2.67;;;1.40;;
31043;SDS011;17710;52.520;13.352;2022-09-27T01:06:30;2.85;;;1.10;;
31043;SDS011;17710;52.520;13.352;2022-09-27T01:08:56;1.15;;;1.00;;
31043;SDS011;17710;52.520;13.352;2022-09-27T01:11:27;2.10;;;1.20;;
31043;SDS011;17710;52.520;13.352;2022-09-27T01:14:12;2.25;;;1.33;;
31043;SDS011;17710;52.520;13.352;2022-09-27T01:16:52;1.90;;;1.05;;
31043;SDS011;17710;52.520;13.352;2022-09-27T01:19:43;2.05;;;1.10;;
31043;SDS011;17710;52.520;13.352;2022-09-27T01:22:24;2.80;;;1.20;;
31043;SDS011;17710;52.520;13.352;2022-09-27T01:24:59;2.25;;;1.23;;
31043;SDS011;17710;52.520;13.352;2022-09-27T01:30:46;1.90;;;0.90;;
31043;SDS011;17710;52.520;13.352;2022-09-27T01:33:32;2.33;;;1.02;;
31043;SDS011;17710;52.520;13.352;2022-09-27T01:36:16;1.90;;;0.65;;
31043;SDS011;17710;52.520;13.352;2022-09-27T01:38:54;4.07;;;1.38;;
31043;SDS011;17710;52.520;13.352;2022-09-27T01:41:31;2.50;;;0.90;;
31043;SDS011;17710;52.520;13.352;2022-09-27T01:44:03;1.13;;;1.00;;
31043;SDS011;17710;52.520;13.352;2022-09-27T01:46:37;5.32;;;1.10;;
31043;SDS011;17710;52.520;13.352;2022-09-27T01:49:09;2.67;;;1.05;;
31043;SDS011;17710;52.520;13.352;2022-09-27T01:51:41;2.55;;;1.05;;
31043;SDS011;17710;52.520;13.352;2022-09-27T01:54:13;3.80;;;1.20;;
31043;SDS011;17710;52.520;13.352;2022-09-27T01:56:46;2.60;;;1.10;;
31043;SDS011;17710;52.520;13.352;2022-09-27T01:59:17;2.10;;;1.10;;
31043;SDS011;17710;52.520;13.352;2022-09-27T02:01:55;3.45;;;1.42;;
31043;SDS011;17710;52.520;13.352;2022-09-27T02:04:27;2.17;;;1.05;;
31043;SDS011;17710;52.520;13.352;2022-09-27T02:06:58;1.40;;;1.10;;
31043;SDS011;17710;52.520;13.352;2022-09-27T02:09:32;2.33;;;1.00;;
31043;SDS011;17710;52.520;13.352;2022-09-27T02:14:32;1.00;;;0.90;;
31043;SDS011;17710;52.520;13.352;2022-09-27T02:17:10;2.95;;;0.85;;
31043;SDS011;17710;52.520;13.352;2022-09-27T02:19:49;2.42;;;1.10;;
31043;SDS011;17710;52.520;13.352;2022-09-27T02:22:21;2.28;;;1.15;;
31043;SDS011;17710;52.520;13.352;2022-09-27T02:24:57;2.35;;;0.85;;
31043;SDS011;17710;52.520;13.352;2022-09-27T02:27:27;1.02;;;0.80;;
31043;SDS011;17710;52.520;13.352;2022-09-27T02:29:57;1.20;;;1.10;;
31043;SDS011;17710;52.520;13.352;2022-09-27T02:32:29;1.35;;;0.82;;
31043;SDS011;17710;52.520;13.352;2022-09-27T02:34:57;2.85;;;1.13;;
31043;SDS011;17710;52.520;13.352;2022-09-27T02:37:27;1.85;;;0.90;;
31043;SDS011;17710;52.520;13.352;2022-09-27T02:39:54;2.83;;;1.10;;
31043;SDS011;17710;52.520;13.352;2022-09-27T02:42:21;0.73;;;0.60;;
31043;SDS011;17710;52.520;13.352;2022-09-27T02:44:47;2.45;;;1.10;;
31043;SDS011;17710;52.520;13.352;2022-09-27T02:47:27;2.20;;;1.20;;
31043;SDS011;17710;52.520;13.352;2022-09-27T02:50:19;1.17;;;1.05;;
31043;SDS011;17710;52.520;13.352;2022-09-27T02:53:02;4.20;;;0.98;;
31043;SDS011;17710;52.520;13.352;2022-09-27T02:55:36;1.42;;;1.00;;
31043;SDS011;17710;52.520;13.352;2022-09-27T02:58:12;2.92;;;0.93;;
31043;SDS011;17710;52.520;13.352;2022-09-27T03:00:46;1.80;;;1.02;;
31043;SDS011;17710;52.520;13.352;2022-09-27T03:03:20;0.82;;;0.73;;
31043;SDS011;17710;52.520;13.352;2022-09-27T03:05:53;1.25;;;0.85;;
31043;SDS011;17710;52.520;13.352;2022-09-27T03:08:26;1.80;;;1.10;;
31043;SDS011;17710;52.520;13.352;2022-09-27T03:10:54;1.23;;;0.90;;
31043;SDS011;17710;52.520;13.352;2022-09-27T03:13:21;2.30;;;1.20;;
31043;SDS011;17710;52.520;13.352;2022-09-27T03:15:47;3.97;;;1.23;;
31043;SDS011;17710;52.520;13.352;2022-09-27T03:18:16;1.95;;;1.23;;
31043;SDS011;17710;52.520;13.352;2022-09-27T03:20:46;1.75;;;0.90;;
31043;SDS011;17710;52.520;13.352;2022-09-27T03:23:12;2.25;;;0.90;;
31043;SDS011;17710;52.520;13.352;2022-09-27T03:25:39;2.33;;;1.23;;
31043;SDS011;17710;52.520;13.352;2022-09-27T03:28:05;2.65;;;1.10;;
31043;SDS011;17710;52.520;13.352;2022-09-27T03:30:34;2.13;;;1.30;;
31043;SDS011;17710;52.520;13.352;2022-09-27T03:33:03;1.30;;;1.00;;
31043;SDS011;17710;52.520;13.352;2022-09-27T03:35:30;4.00;;;1.35;;
31043;SDS011;17710;52.520;13.352;2022-09-27T03:38:00;3.83;;;1.15;;
31043;SDS011;17710;52.520;13.352;2022-09-27T03:40:27;2.55;;;1.10;;
31043;SDS011;17710;52.520;13.352;2022-09-27T03:42:54;1.08;;;0.98;;
31043;SDS011;17710;52.520;13.352;2022-09-27T03:45:20;1.45;;;1.13;;
31043;SDS011;17710;52.520;13.352;2022-09-27T03:47:47;3.72;;;1.23;;
31043;SDS011;17710;52.520;13.352;2022-09-27T03:50:18;2.58;;;1.58;;
31043;SDS011;17710;52.520;13.352;2022-09-27T03:52:45;2.88;;;1.40;;
31043;SDS011;17710;52.520;13.352;2022-09-27T03:55:13;2.30;;;1.50;;
31043;SDS011;17710;52.520;13.352;2022-09-27T03:57:42;4.65;;;1.38;;
31043;SDS011;17710;52.520;13.352;2022-09-27T04:00:11;2.08;;;1.60;;
31043;SDS011;17710;52.520;13.352;2022-09-27T04:02:38;2.80;;;1.50;;
31043;SDS011;17710;52.520;13.352;2022-09-27T04:05:08;1.92;;;1.50;;
31043;SDS011;17710;52.520;13.352;2022-09-27T04:07:34;2.47;;;1.52;;
31043;SDS011;17710;52.520;13.352;2022-09-27T04:10:01;2.53;;;1.40;;
31043;SDS011;17710;52.520;13.352;2022-09-27T04:12:29;4.63;;;1.48;;
31043;SDS011;17710;52.520;13.352;2022-09-27T04:14:57;3.65;;;1.30;;
31043;SDS011;17710;52.520;13.352;2022-09-27T04:17:24;5.43;;;1.50;;
31043;SDS011;17710;52.520;13.352;2022-09-27T04:19:51;2.53;;;1.55;;
31043;SDS011;17710;52.520;13.352;2022-09-27T04:22:19;2.15;;;1.27;;
31043;SDS011;17710;52.520;13.352;2022-09-27T04:24:46;2.17;;;1.10;;
31043;SDS011;17710;52.520;13.352;2022-09-27T04:27:12;2.35;;;1.60;;
31043;SDS011;17710;52.520;13.352;2022-09-27T04:29:40;2.65;;;1.33;;
31043;SDS011;17710;52.520;13.352;2022-09-27T04:32:09;2.42;;;1.42;;
31043;SDS011;17710;52.520;13.352;2022-09-27T04:34:36;1.38;;;1.27;;
31043;SDS011;17710;52.520;13.352;2022-09-27T04:37:20;2.05;;;1.33;;
31043;SDS011;17710;52.520;13.352;2022-09-27T04:39:47;3.60;;;1.05;;
31043;SDS011;17710;52.520;13.352;2022-09-27T04:42:14;3.83;;;1.50;;
31043;SDS011;17710;52.520;13.352;2022-09-27T04:44:42;1.90;;;1.52;;
31043;SDS011;17710;52.520;13.352;2022-09-27T04:47:08;4.85;;;3.35;;
31043;SDS011;17710;52.520;13.352;2022-09-27T04:49:35;2.42;;;1.50;;
31043;SDS011;17710;52.520;13.352;2022-09-27T04:52:02;1.27;;;1.10;;
31043;SDS011;17710;52.520;13.352;2022-09-27T04:54:30;1.20;;;1.10;;
31043;SDS011;17710;52.520;13.352;2022-09-27T04:56:57;7.53;;;2.33;;
31043;SDS011;17710;52.520;13.352;2022-09-27T04:59:23;4.28;;;1.42;;
31043;SDS011;17710;52.520;13.352;2022-09-27T05:01:51;4.40;;;1.85;;
31043;SDS011;17710;52.520;13.352;2022-09-27T05:04:18;3.15;;;1.48;;
31043;SDS011;17710;52.520;13.352;2022-09-27T05:06:45;1.88;;;1.48;;
31043;SDS011;17710;52.520;13.352;2022-09-27T05:09:12;3.25;;;1.52;;
31043;SDS011;17710;52.520;13.352;2022-09-27T05:11:38;4.38;;;1.85;;
31043;SDS011;17710;52.520;13.352;2022-09-27T05:14:05;3.70;;;1.85;;
31043;SDS011;17710;52.520;13.352;2022-09-27T05:16:33;3.72;;;1.05;;
31043;SDS011;17710;52.520;13.352;2022-09-27T05:19:02;3.55;;;1.40;;
31043;SDS011;17710;52.520;13.352;2022-09-27T05:21:29;3.75;;;1.58;;
31043;SDS011;17710;52.520;13.352;2022-09-27T05:23:57;4.72;;;1.80;;
31043;SDS011;17710;52.520;13.352;2022-09-27T05:26:25;3.65;;;1.73;;
31043;SDS011;17710;52.520;13.352;2022-09-27T05:28:54;3.22;;;1.98;;
31043;SDS011;17710;52.520;13.352;2022-09-27T05:31:23;3.75;;;2.15;;
31043;SDS011;17710;52.520;13.352;2022-09-27T05:33:50;3.60;;;1.75;;
31043;SDS011;17710;52.520;13.352;2022-09-27T05:36:18;3.42;;;1.60;;
31043;SDS011;17710;52.520;13.352;2022-09-27T05:38:47;2.92;;;1.63;;
31043;SDS011;17710;52.520;13.352;2022-09-27T05:41:14;8.85;;;1.65;;
31043;SDS011;17710;52.520;13.352;2022-09-27T05:43:41;2.63;;;1.60;;
31043;SDS011;17710;52.520;13.352;2022-09-27T05:46:10;3.55;;;1.75;;
31043;SDS011;17710;52.520;13.352;2022-09-27T05:48:37;3.03;;;1.67;;
31043;SDS011;17710;52.520;13.352;2022-09-27T05:51:06;33.42;;;2.78;;
31043;SDS011;17710;52.520;13.352;2022-09-27T05:53:37;4.53;;;1.80;;
31043;SDS011;17710;52.520;13.352;2022-09-27T05:56:04;3.33;;;1.80;;
31043;SDS011;17710;52.520;13.352;2022-09-27T05:58:31;2.70;;;1.90;;
31043;SDS011;17710;52.520;13.352;2022-09-27T06:00:58;3.42;;;1.92;;
31043;SDS011;17710;52.520;13.352;2022-09-27T06:03:27;5.47;;;1.90;;
31043;SDS011;17710;52.520;13.352;2022-09-27T06:06:00;3.03;;;1.67;;
31043;SDS011;17710;52.520;13.352;2022-09-27T06:08:27;3.53;;;1.77;;
31043;SDS011;17710;52.520;13.352;2022-09-27T06:11:00;2.78;;;1.58;;
31043;SDS011;17710;52.520;13.352;2022-09-27T06:13:28;3.03;;;1.60;;
31043;SDS011;17710;52.520;13.352;2022-09-27T06:15:55;4.10;;;2.10;;
31043;SDS011;17710;52.520;13.352;2022-09-27T06:18:22;3.50;;;1.52;;
31043;SDS011;17710;52.520;13.352;2022-09-27T06:20:49;3.53;;;1.77;;
31043;SDS011;17710;52.520;13.352;2022-09-27T06:23:16;2.13;;;1.50;;
31043;SDS011;17710;52.520;13.352;2022-09-27T06:25:44;2.58;;;1.52;;
31043;SDS011;17710;52.520;13.352;2022-09-27T06:28:12;2.10;;;1.60;;
31043;SDS011;17710;52.520;13.352;2022-09-27T06:30:40;1.58;;;1.40;;
31043;SDS011;17710;52.520;13.352;2022-09-27T06:33:08;1.85;;;1.60;;
31043;SDS011;17710;52.520;13.352;2022-09-27T06:35:40;2.17;;;1.60;;
31043;SDS011;17710;52.520;13.352;2022-09-27T06:38:10;4.18;;;1.50;;
31043;SDS011;17710;52.520;13.352;2022-09-27T06:40:37;1.90;;;1.55;;
31043;SDS011;17710;52.520;13.352;2022-09-27T06:43:04;4.20;;;1.70;;
31043;SDS011;17710;52.520;13.352;2022-09-27T06:45:36;2.95;;;1.70;;
31043;SDS011;17710;52.520;13.352;2022-09-27T06:48:03;4.05;;;1.58;;
31043;SDS011;17710;52.520;13.352;2022-09-27T06:50:31;2.63;;;1.40;;
31043;SDS011;17710;52.520;13.352;2022-09-27T06:53:03;3.40;;;1.83;;
31043;SDS011;17710;52.520;13.352;2022-09-27T06:55:30;4.47;;;1.67;;
31043;SDS011;17710;52.520;13.352;2022-09-27T06:57:59;3.70;;;1.60;;
31043;SDS011;17710;52.520;13.352;2022-09-27T07:00:46;4.03;;;1.45;;
31043;SDS011;17710;52.520;13.352;2022-09-27T07:03:17;2.88;;;1.35;;
31043;SDS011;17710;52.520;13.352;2022-09-27T07:05:53;2.80;;;1.63;;
31043;SDS011;17710;52.520;13.352;2022-09-27T07:08:21;2.35;;;1.80;;
31043;SDS011;17710;52.520;13.352;2022-09-27T07:10:52;4.45;;;1.48;;
31043;SDS011;17710;52.520;13.352;2022-09-27T07:13:27;5.40;;;1.83;;
31043;SDS011;17710;52.520;13.352;2022-09-27T07:15:56;3.60;;;1.48;;
31043;SDS011;17710;52.520;13.352;2022-09-27T07:18:23;5.60;;;1.90;;
31043;SDS011;17710;52.520;13.352;2022-09-27T07:20:50;4.55;;;1.75;;
31043;SDS011;17710;52.520;13.352;2022-09-27T07:23:16;2.75;;;1.77;;
31043;SDS011;17710;52.520;13.352;2022-09-27T07:25:43;2.85;;;1.88;;
31043;SDS011;17710;52.520;13.352;2022-09-27T07:28:12;2.17;;;1.58;;
31043;SDS011;17710;52.520;13.352;2022-09-27T07:30:40;2.25;;;1.95;;
31043;SDS011;17710;52.520;13.352;2022-09-27T07:33:08;2.13;;;1.40;;
31043;SDS011;17710;52.520;13.352;2022-09-27T07:35:34;3.33;;;1.92;;
31043;SDS011;17710;52.520;13.352;2022-09-27T07:38:06;3.10;;;2.00;;
31043;SDS011;17710;52.520;13.352;2022-09-27T07:40:37;5.00;;;1.70;;
31043;SDS011;17710;52.520;13.352;2022-09-27T07:43:04;3.10;;;1.83;;
31043;SDS011;17710;52.520;13.352;2022-09-27T07:45:33;4.88;;;1.77;;
31043;SDS011;17710;52.520;13.352;2022-09-27T07:48:03;3.20;;;1.95;;
31043;SDS011;17710;52.520;13.352;2022-09-27T07:50:35;12.85;;;1.75;;
31043;SDS011;17710;52.520;13.352;2022-09-27T07:53:02;6.30;;;1.60;;
31043;SDS011;17710;52.520;13.352;2022-09-27T07:55:29;2.25;;;2.00;;
31043;SDS011;17710;52.520;13.352;2022-09-27T07:58:01;5.03;;;1.73;;
31043;SDS011;17710;52.520;13.352;2022-09-27T08:00:35;4.28;;;1.52;;
31043;SDS011;17710;52.520;13.352;2022-09-27T08:03:05;4.65;;;1.88;;
31043;SDS011;17710;52.520;13.352;2022-09-27T08:05:34;4.10;;;1.90;;
31043;SDS011;17710;52.520;13.352;2022-09-27T08:08:03;4.70;;;1.80;;
31043;SDS011;17710;52.520;13.352;2022-09-27T08:10:32;2.20;;;1.70;;
31043;SDS011;17710;52.520;13.352;2022-09-27T08:13:00;2.38;;;2.05;;
31043;SDS011;17710;52.520;13.352;2022-09-27T08:15:28;4.15;;;2.70;;
31043;SDS011;17710;52.520;13.352;2022-09-27T08:17:56;5.75;;;1.90;;
31043;SDS011;17710;52.520;13.352;2022-09-27T08:20:24;1.60;;;1.38;;
31043;SDS011;17710;52.520;13.352;2022-09-27T08:23:02;3.58;;;1.52;;
31043;SDS011;17710;52.520;13.352;2022-09-27T08:25:30;1.85;;;1.35;;
31043;SDS011;17710;52.520;13.352;2022-09-27T08:28:00;3.97;;;1.90;;
31043;SDS011;17710;52.520;13.352;2022-09-27T08:30:28;2.50;;;1.63;;
31043;SDS011;17710;52.520;13.352;2022-09-27T08:32:58;13.45;;;1.92;;
31043;SDS011;17710;52.520;13.352;2022-09-27T08:35:30;15.98;;;2.17;;
31043;SDS011;17710;52.520;13.352;2022-09-27T08:38:01;4.75;;;1.85;;
31043;SDS011;17710;52.520;13.352;2022-09-27T08:40:35;38.47;;;3.97;;
31043;SDS011;17710;52.520;13.352;2022-09-27T08:43:13;38.20;;;3.50;;
31043;SDS011;17710;52.520;13.352;2022-09-27T08:45:54;39.10;;;2.40;;
31043;SDS011;17710;52.520;13.352;2022-09-27T08:48:32;41.17;;;3.45;;
31043;SDS011;17710;52.520;13.352;2022-09-27T08:51:07;47.70;;;3.10;;
31043;SDS011;17710;52.520;13.352;2022-09-27T08:53:40;23.90;;;2.38;;
31043;SDS011;17710;52.520;13.352;2022-09-27T08:56:14;33.53;;;2.03;;
31043;SDS011;17710;52.520;13.352;2022-09-27T08:58:47;45.35;;;4.35;;
31043;SDS011;17710;52.520;13.352;2022-09-27T09:01:18;9.57;;;2.08;;
31043;SDS011;17710;52.520;13.352;2022-09-27T09:03:48;24.63;;;2.08;;
31043;SDS011;17710;52.520;13.352;2022-09-27T09:06:18;9.60;;;1.60;;
31043;SDS011;17710;52.520;13.352;2022-09-27T09:08:53;5.93;;;1.70;;
31043;SDS011;17710;52.520;13.352;2022-09-27T09:11:31;3.90;;;2.05;;
31043;SDS011;17710;52.520;13.352;2022-09-27T09:14:35;1.55;;;1.40;;
31043;SDS011;17710;52.520;13.352;2022-09-27T09:17:15;2.67;;;1.75;;
31043;SDS011;17710;52.520;13.352;2022-09-27T09:19:56;1.90;;;1.42;;
31043;SDS011;17710;52.520;13.352;2022-09-27T09:22:41;6.78;;;1.90;;
31043;SDS011;17710;52.520;13.352;2022-09-27T09:25:30;1.63;;;1.30;;
31043;SDS011;17710;52.520;13.352;2022-09-27T09:28:09;2.10;;;1.90;;
31043;SDS011;17710;52.520;13.352;2022-09-27T09:30:49;3.63;;;1.67;;
31043;SDS011;17710;52.520;13.352;2022-09-27T09:33:30;2.67;;;1.45;;
31043;SDS011;17710;52.520;13.352;2022-09-27T09:36:03;4.05;;;1.90;;
31043;SDS011;17710;52.520;13.352;2022-09-27T09:38:52;2.25;;;1.70;;
31043;SDS011;17710;52.520;13.352;2022-09-27T09:41:26;2.72;;;1.63;;
31043;SDS011;17710;52.520;13.352;2022-09-27T09:43:56;38.63;;;4.15;;
31043;SDS011;17710;52.520;13.352;2022-09-27T09:46:27;5.25;;;1.88;;
31043;SDS011;17710;52.520;13.352;2022-09-27T09:49:02;15.25;;;2.20;;
31043;SDS011;17710;52.520;13.352;2022-09-27T09:51:38;3.42;;;1.65;;
31043;SDS011;17710;52.520;13.352;2022-09-27T09:54:13;1.67;;;1.40;;
31043;SDS011;17710;52.520;13.352;2022-09-27T09:56:49;2.90;;;1.55;;
31043;SDS011;17710;52.520;13.352;2022-09-27T09:59:25;4.13;;;2.35;;
31043;SDS011;17710;52.520;13.352;2022-09-27T10:01:57;1.90;;;1.30;;
31043;SDS011;17710;52.520;13.352;2022-09-27T10:04:35;3.78;;;2.33;;
31043;SDS011;17710;52.520;13.352;2022-09-27T10:07:01;2.70;;;1.80;;
31043;SDS011;17710;52.520;13.352;2022-09-27T10:09:29;2.05;;;1.50;;
31043;SDS011;17710;52.520;13.352;2022-09-27T10:12:01;6.45;;;1.70;;
31043;SDS011;17710;52.520;13.352;2022-09-27T10:14:31;5.38;;;1.55;;
31043;SDS011;17710;52.520;13.352;2022-09-27T10:17:00;5.85;;;1.77;;
31043;SDS011;17710;52.520;13.352;2022-09-27T10:19:31;2.88;;;1.60;;
31043;SDS011;17710;52.520;13.352;2022-09-27T10:22:10;5.78;;;1.77;;
31043;SDS011;17710;52.520;13.352;2022-09-27T10:24:52;2.33;;;1.83;;
31043;SDS011;17710;52.520;13.352;2022-09-27T10:27:22;1.67;;;1.45;;
31043;SDS011;17710;52.520;13.352;2022-09-27T10:29:55;4.72;;;2.03;;
31043;SDS011;17710;52.520;13.352;2022-09-27T10:32:23;6.72;;;1.80;;
31043;SDS011;17710;52.520;13.352;2022-09-27T10:34:56;5.03;;;1.63;;
31043;SDS011;17710;52.520;13.352;2022-09-27T10:37:47;2.88;;;2.05;;
31043;SDS011;17710;52.520;13.352;2022-09-27T10:40:26;4.93;;;2.35;;
31043;SDS011;17710;52.520;13.352;2022-09-27T10:43:02;2.97;;;1.73;;
31043;SDS011;17710;52.520;13.352;2022-09-27T10:45:57;7.10;;;2.03;;
31043;SDS011;17710;52.520;13.352;2022-09-27T10:48:25;2.80;;;1.75;;
31043;SDS011;17710;52.520;13.352;2022-09-27T10:50:55;5.30;;;2.13;;
31043;SDS011;17710;52.520;13.352;2022-09-27T10:53:25;2.38;;;1.63;;
31043;SDS011;17710;52.520;13.352;2022-09-27T10:55:55;3.55;;;1.38;;
31043;SDS011;17710;52.520;13.352;2022-09-27T10:58:33;2.22;;;1.75;;
31043;SDS011;17710;52.520;13.352;2022-09-27T11:01:03;3.85;;;2.00;;
31043;SDS011;17710;52.520;13.352;2022-09-27T11:03:31;2.20;;;2.00;;
31043;SDS011;17710;52.520;13.352;2022-09-27T11:06:05;3.28;;;1.85;;
31043;SDS011;17710;52.520;13.352;2022-09-27T11:08:44;4.30;;;1.92;;
31043;SDS011;17710;52.520;13.352;2022-09-27T11:11:15;8.30;;;2.00;;
31043;SDS011;17710;52.520;13.352;2022-09-27T11:14:03;3.08;;;1.80;;
31043;SDS011;17710;52.520;13.352;2022-09-27T11:16:44;3.58;;;1.83;;
31043;SDS011;17710;52.520;13.352;2022-09-27T11:21:56;4.93;;;2.20;;
31043;SDS011;17710;52.520;13.352;2022-09-27T11:24:40;4.13;;;2.15;;
31043;SDS011;17710;52.520;13.352;2022-09-27T11:27:19;5.18;;;2.03;;
31043;SDS011;17710;52.520;13.352;2022-09-27T11:30:06;4.18;;;1.65;;
31043;SDS011;17710;52.520;13.352;2022-09-27T11:32:40;3.70;;;1.70;;
31043;SDS011;17710;52.520;13.352;2022-09-27T11:35:23;4.60;;;1.80;;
31043;SDS011;17710;52.520;13.352;2022-09-27T11:37:59;4.95;;;2.17;;
31043;SDS011;17710;52.520;13.352;2022-09-27T11:40:41;3.75;;;2.10;;
31043;SDS011;17710;52.520;13.352;2022-09-27T11:43:28;8.85;;;5.47;;
31043;SDS011;17710;52.520;13.352;2022-09-27T11:46:11;6.22;;;1.70;;
31043;SDS011;17710;52.520;13.352;2022-09-27T11:48:58;3.33;;;0.70;;
31043;SDS011;17710;52.520;13.352;2022-09-27T11:54:23;2.28;;;0.60;;
31043;SDS011;17710;52.520;13.352;2022-09-27T11:57:05;7.13;;;0.75;;
31043;SDS011;17710;52.520;13.352;2022-09-27T11:59:47;2.42;;;0.63;;
31043;SDS011;17710;52.520;13.352;2022-09-27T12:02:43;0.85;;;0.50;;
31043;SDS011;17710;52.520;13.352;2022-09-27T12:05:24;2.47;;;0.73;;
31043;SDS011;17710;52.520;13.352;2022-09-27T12:08:00;1.23;;;0.68;;
31043;SDS011;17710;52.520;13.352;2022-09-27T12:10:41;1.63;;;0.80;;
31043;SDS011;17710;52.520;13.352;2022-09-27T12:13:13;2.40;;;0.77;;
31043;SDS011;17710;52.520;13.352;2022-09-27T12:15:44;2.20;;;0.70;;
31043;SDS011;17710;52.520;13.352;2022-09-27T12:18:19;1.33;;;0.68;;
31043;SDS011;17710;52.520;13.352;2022-09-27T12:20:51;2.33;;;0.70;;
31043;SDS011;17710;52.520;13.352;2022-09-27T12:23:19;1.30;;;0.73;;
31043;SDS011;17710;52.520;13.352;2022-09-27T12:25:49;3.38;;;1.05;;
31043;SDS011;17710;52.520;13.352;2022-09-27T12:28:25;5.85;;;1.40;;
31043;SDS011;17710;52.520;13.352;2022-09-27T12:31:02;7.90;;;1.00;;
31043;SDS011;17710;52.520;13.352;2022-09-27T12:33:36;2.28;;;0.80;;
31043;SDS011;17710;52.520;13.352;2022-09-27T12:36:13;2.75;;;1.17;;
31043;SDS011;17710;52.520;13.352;2022-09-27T12:38:44;1.65;;;1.00;;
31043;SDS011;17710;52.520;13.352;2022-09-27T12:41:19;1.20;;;1.10;;
31043;SDS011;17710;52.520;13.352;2022-09-27T12:43:51;1.90;;;1.10;;
31043;SDS011;17710;52.520;13.352;2022-09-27T12:46:21;1.75;;;1.17;;
31043;SDS011;17710;52.520;13.352;2022-09-27T12:49:01;1.13;;;1.00;;
31043;SDS011;17710;52.520;13.352;2022-09-27T12:51:37;1.85;;;1.05;;
31043;SDS011;17710;52.520;13.352;2022-09-27T12:54:16;2.80;;;1.63;;
31043;SDS011;17710;52.520;13.352;2022-09-27T12:56:59;1.13;;;1.00;;
31043;SDS011;17710;52.520;13.352;2022-09-27T12:59:42;1.02;;;0.90;;
31043;SDS011;17710;52.520;13.352;2022-09-27T13:02:26;2.40;;;0.80;;
31043;SDS011;17710;52.520;13.352;2022-09-27T13:05:28;0.85;;;0.80;;
31043;SDS011;17710;52.520;13.352;2022-09-27T13:10:51;1.83;;;1.15;;
31043;SDS011;17710;52.520;13.352;2022-09-27T13:13:24;3.00;;;0.82;;
31043;SDS011;17710;52.520;13.352;2022-09-27T13:15:54;1.58;;;1.00;;
31043;SDS011;17710;52.520;13.352;2022-09-27T13:18:30;1.63;;;0.80;;
31043;SDS011;17710;52.520;13.352;2022-09-27T13:24:31;2.25;;;1.25;;
31043;SDS011;17710;52.520;13.352;2022-09-27T13:36:17;2.17;;;1.00;;
31043;SDS011;17710;52.520;13.352;2022-09-27T13:38:54;3.30;;;1.38;;
31043;SDS011;17710;52.520;13.352;2022-09-27T13:41:31;3.63;;;1.08;;
31043;SDS011;17710;52.520;13.352;2022-09-27T13:44:21;2.47;;;1.00;;
31043;SDS011;17710;52.520;13.352;2022-09-27T13:46:57;1.85;;;1.02;;
31043;SDS011;17710;52.520;13.352;2022-09-27T13:49:29;4.93;;;2.80;;
31043;SDS011;17710;52.520;13.352;2022-09-27T13:51:59;2.65;;;1.40;;
31043;SDS011;17710;52.520;13.352;2022-09-27T13:54:38;0.98;;;0.88;;
31043;SDS011;17710;52.520;13.352;2022-09-27T14:00:19;1.38;;;1.05;;
31043;SDS011;17710;52.520;13.352;2022-09-27T14:02:50;1.30;;;0.90;;
31043;SDS011;17710;52.520;13.352;2022-09-27T14:05:26;4.57;;;2.67;;
31043;SDS011;17710;52.520;13.352;2022-09-27T14:07:58;2.17;;;1.55;;
31043;SDS011;17710;52.520;13.352;2022-09-27T14:10:30;2.20;;;0.90;;
31043;SDS011;17710;52.520;13.352;2022-09-27T14:13:03;1.52;;;1.10;;
31043;SDS011;17710;52.520;13.352;2022-09-27T14:15:33;2.38;;;1.17;;
31043;SDS011;17710;52.520;13.352;2022-09-27T14:18:02;1.33;;;1.00;;
31043;SDS011;17710;52.520;13.352;2022-09-27T14:20:37;2.92;;;1.20;;
31043;SDS011;17710;52.520;13.352;2022-09-27T14:23:12;1.30;;;1.20;;
31043;SDS011;17710;52.520;13.352;2022-09-27T14:25:45;1.85;;;1.20;;
31043;SDS011;17710;52.520;13.352;2022-09-27T14:28:19;2.28;;;1.00;;
31043;SDS011;17710;52.520;13.352;2022-09-27T14:30:47;0.70;;;0.70;;
31043;SDS011;17710;52.520;13.352;2022-09-27T14:33:27;0.82;;;0.80;;
31043;SDS011;17710;52.520;13.352;2022-09-27T14:35:58;1.33;;;0.85;;
31043;SDS011;17710;52.520;13.352;2022-09-27T14:38:42;1.70;;;1.10;;
31043;SDS011;17710;52.520;13.352;2022-09-27T14:41:13;1.67;;;1.20;;
31043;SDS011;17710;52.520;13.352;2022-09-27T14:43:41;2.58;;;1.48;;
31043;SDS011;17710;52.520;13.352;2022-09-27T14:46:24;1.88;;;1.30;;
31043;SDS011;17710;52.520;13.352;2022-09-27T14:48:52;1.52;;;1.42;;
31043;SDS011;17710;52.520;13.352;2022-09-27T14:51:25;1.83;;;1.20;;
31043;SDS011;17710;52.520;13.352;2022-09-27T14:53:54;1.23;;;1.08;;
31043;SDS011;17710;52.520;13.352;2022-09-27T14:56:27;2.25;;;1.50;;
31043;SDS011;17710;52.520;13.352;2022-09-27T14:59:00;3.58;;;1.50;;
31043;SDS011;17710;52.520;13.352;2022-09-27T15:01:29;1.30;;;1.17;;
31043;SDS011;17710;52.520;13.352;2022-09-27T15:04:02;1.85;;;1.23;;
31043;SDS011;17710;52.520;13.352;2022-09-27T15:06:31;1.75;;;1.50;;
31043;SDS011;17710;52.520;13.352;2022-09-27T15:08:58;3.13;;;1.60;;
31043;SDS011;17710;52.520;13.352;2022-09-27T15:11:26;2.80;;;1.35;;
31043;SDS011;17710;52.520;13.352;2022-09-27T15:14:00;2.90;;;1.40;;
31043;SDS011;17710;52.520;13.352;2022-09-27T15:16:30;2.10;;;1.60;;
31043;SDS011;17710;52.520;13.352;2022-09-27T15:19:00;3.45;;;1.60;;
31043;SDS011;17710;52.520;13.352;2022-09-27T15:21:33;2.08;;;1.67;;
31043;SDS011;17710;52.520;13.352;2022-09-27T15:24:01;2.38;;;1.83;;
31043;SDS011;17710;52.520;13.352;2022-09-27T15:26:36;1.60;;;1.50;;
31043;SDS011;17710;52.520;13.352;2022-09-27T15:29:15;2.97;;;1.80;;
31043;SDS011;17710;52.520;13.352;2022-09-27T15:31:44;3.95;;;1.80;;
31043;SDS011;17710;52.520;13.352;2022-09-27T15:34:29;3.92;;;2.47;;